createdAt,value
2023-02-23T00:00:27.755Z,100867.19
2023-02-23T00:04:30.989Z,100862.75
2023-02-23T00:08:36.107Z,100857.75
2023-02-23T00:12:39.745Z,100868.25
2023-02-23T00:16:45.407Z,100869.09
2023-02-23T00:20:57.640Z,100875.09
2023-02-23T00:25:03.231Z,100865.91
2023-02-23T00:29:10.521Z,100851.75
2023-02-23T00:33:14.027Z,100856.94
2023-02-23T00:37:17.596Z,100850.91
2023-02-23T00:41:24.111Z,100855.75
2023-02-23T00:45:27.140Z,100857.41
2023-02-23T00:49:30.101Z,100848.44
2023-02-23T00:53:33.938Z,100848.19
2023-02-23T00:57:38.519Z,100856.59
2023-02-23T01:01:42.777Z,100858.47
2023-02-23T01:05:49.815Z,100864.09
2023-02-23T01:09:52.998Z,100845.94
2023-02-23T01:13:59.201Z,100857.41
2023-02-23T01:18:02.472Z,100861.53
2023-02-23T01:22:05.695Z,100860.31
2023-02-23T01:26:16.320Z,100861.88
2023-02-23T01:30:20.767Z,100862.31
2023-02-23T01:34:23.879Z,100866.69
2023-02-23T01:38:26.850Z,100854.78
2023-02-23T01:42:29.898Z,100861.47
2023-02-23T01:46:36.417Z,100860.88
2023-02-23T01:50:49.388Z,100863.59
2023-02-23T01:54:56.726Z,100859.22
2023-02-23T01:59:04.089Z,100858.66
2023-02-23T02:03:15.718Z,100855.06
2023-02-23T02:07:23.581Z,100858.84
2023-02-23T02:11:30.805Z,100850.72
2023-02-23T02:15:38.788Z,100850.72
2023-02-23T02:20:14.855Z,100854.47
2023-02-23T02:24:38.606Z,100855.31
2023-02-23T02:29:10.041Z,100856.59
2023-02-23T02:33:58.564Z,100858.72
2023-02-23T02:38:17.380Z,100854.28
2023-02-23T02:42:29.616Z,100848.72
2023-02-23T02:46:38.581Z,100854.13
2023-02-23T02:50:47.843Z,100845.19
2023-02-23T02:54:54.662Z,100853.56
2023-02-23T02:58:59.813Z,100852.34
2023-02-23T03:03:20.575Z,100851.28
2023-02-23T03:07:47.901Z,100852.94
2023-02-23T03:12:20.481Z,100856.63
2023-02-23T03:16:46.395Z,100857.44
2023-02-23T03:21:12.577Z,100856.38
2023-02-23T03:25:41.387Z,100858.06
2023-02-23T03:30:11.762Z,100859.91
2023-02-23T03:34:36.053Z,100867.03
2023-02-23T03:39:04.696Z,100863.50
2023-02-23T03:43:30.040Z,100864.09
2023-02-23T03:47:56.553Z,100865.72
2023-02-23T03:52:24.147Z,100864.09
2023-02-23T03:56:46.402Z,100866.41
2023-02-23T04:01:09.102Z,100879.97
2023-02-23T04:05:36.272Z,100873.28
2023-02-23T04:09:57.348Z,100876.44
2023-02-23T04:14:04.570Z,100879.38
2023-02-23T04:18:13.391Z,100879.13
2023-02-23T04:22:17.746Z,100874.19
2023-02-23T04:26:20.676Z,100882.75
2023-02-23T04:30:25.717Z,100881.09
2023-02-23T04:34:29.045Z,100884.88
2023-02-23T04:38:33.465Z,100880.28
2023-02-23T04:42:36.779Z,100889.25
2023-02-23T04:46:39.907Z,100885.94
2023-02-23T04:50:42.903Z,100898.66
2023-02-23T04:54:48.162Z,100901.38
2023-02-23T04:58:51.319Z,100901.63
2023-02-23T05:02:54.508Z,100896.78
2023-02-23T05:06:57.395Z,100905.16
2023-02-23T05:11:01.710Z,100892.50
2023-02-23T05:15:05.783Z,100898.28
2023-02-23T05:19:09.451Z,100912.06
2023-02-23T05:23:13.130Z,100904.16
2023-02-23T05:27:17.792Z,100908.28
2023-02-23T05:31:21.588Z,100905.97
2023-02-23T05:35:24.775Z,100901.00
2023-02-23T05:39:27.778Z,100908.53
2023-02-23T05:43:32.115Z,100909.34
2023-02-23T05:47:38.573Z,100910.03
2023-02-23T05:51:43.078Z,100909.44
2023-02-23T05:55:46.163Z,100905.06
2023-02-23T06:00:06.097Z,100908.00
2023-02-23T06:04:08.968Z,100916.72
2023-02-23T06:08:12.790Z,100921.31
2023-02-23T06:12:17.031Z,100931.56
2023-02-23T06:16:21.809Z,100926.75
2023-02-23T06:20:24.739Z,100922.56
2023-02-23T06:24:27.896Z,100928.81
2023-02-23T06:28:31.303Z,100936.09
2023-02-23T06:32:35.780Z,100935.06
2023-02-23T06:36:41.071Z,100942.78
2023-02-23T06:40:44.232Z,100938.50
2023-02-23T06:44:47.318Z,100942.50
2023-02-23T06:48:55.867Z,100939.38
2023-02-23T06:52:58.921Z,100940.66
2023-02-23T06:57:02.305Z,100947.28
2023-02-23T07:01:06.434Z,100954.59
2023-02-23T07:05:11.395Z,100956.69
2023-02-23T07:09:15.498Z,100956.94
2023-02-23T07:13:20.439Z,100972.78
2023-02-23T07:17:23.971Z,100979.72
2023-02-23T07:21:28.303Z,100986.84
2023-02-23T07:25:32.140Z,100986.56
2023-02-23T07:29:35.057Z,100997.00
2023-02-23T07:33:38.357Z,100991.41
2023-02-23T07:37:43.171Z,100999.78
2023-02-23T07:41:46.780Z,101006.47
2023-02-23T07:45:55.094Z,101022.31
2023-02-23T07:49:59.774Z,101020.44
2023-02-23T07:54:05.838Z,101016.06
2023-02-23T07:58:09.726Z,101021.25
2023-02-23T08:02:16.435Z,101029.56
2023-02-23T08:06:20.703Z,101025.16
2023-02-23T08:10:25.162Z,101031.00
2023-02-23T08:14:28.347Z,101039.13
2023-02-23T08:18:31.350Z,101034.75
2023-02-23T08:22:48.407Z,101037.06
2023-02-23T08:26:54.626Z,101042.06
2023-02-23T08:30:59.274Z,101042.91
2023-02-23T08:35:03.198Z,101048.94
2023-02-23T08:39:07.379Z,101042.94
2023-02-23T08:43:11.797Z,101052.50
2023-02-23T08:47:16.665Z,101049.19
2023-02-23T08:51:20.330Z,101046.69
2023-02-23T08:55:23.956Z,101060.22
2023-02-23T08:59:28.414Z,101060.41
2023-02-23T09:03:31.585Z,101056.03
2023-02-23T09:07:34.608Z,101061.22
2023-02-23T09:11:37.570Z,101060.81
2023-02-23T09:15:42.760Z,101062.47
2023-02-23T09:19:45.688Z,101071.03
2023-02-23T09:23:51.213Z,101077.06
2023-02-23T09:27:57.004Z,101087.06
2023-02-23T09:32:01.443Z,101086.47
2023-02-23T09:36:09.467Z,101084.34
2023-02-23T09:40:16.263Z,101089.97
2023-02-23T09:44:27.509Z,101087.44
2023-02-23T09:48:35.779Z,101095.97
2023-02-23T09:52:42.741Z,101092.91
2023-02-23T09:56:48.706Z,101102.91
2023-02-23T10:01:00.348Z,101096.84
2023-02-23T10:05:09.590Z,101101.41
2023-02-23T10:09:23.310Z,101096.22
2023-02-23T10:13:38.384Z,101098.13
2023-02-23T10:17:50.105Z,101101.22
2023-02-23T10:21:58.212Z,101101.41
2023-02-23T10:26:03.266Z,101105.97
2023-02-23T10:30:18.858Z,101109.44
2023-02-23T10:34:23.692Z,101099.19
2023-02-23T10:38:28.658Z,101103.97
2023-02-23T10:42:32.094Z,101103.31
2023-02-23T10:46:39.346Z,101110.78
2023-02-23T10:50:43.856Z,101102.41
2023-02-23T10:54:50.037Z,101102.41
2023-02-23T10:58:56.121Z,101110.56
2023-02-23T11:03:00.020Z,101115.13
2023-02-23T11:07:16.420Z,101116.88
2023-02-23T11:11:27.473Z,101115.41
2023-02-23T11:15:49.263Z,101118.72
2023-02-23T11:20:01.758Z,101121.47
2023-02-23T11:24:14.614Z,101121.47
2023-02-23T11:28:22.246Z,101120.47
2023-02-23T11:32:30.915Z,101123.91
2023-02-23T11:36:36.380Z,101117.09
2023-02-23T11:40:42.853Z,101108.09
2023-02-23T11:44:53.222Z,101116.41
2023-02-23T11:49:00.738Z,101116.41
2023-02-23T11:53:06.832Z,101118.72
2023-02-23T11:57:09.778Z,101115.13
2023-02-23T12:01:18.713Z,101119.50
2023-02-23T12:05:27.304Z,101114.63
2023-02-23T12:09:35.170Z,101125.47
2023-02-23T12:13:43.251Z,101128.69
2023-02-23T12:17:53.050Z,101122.63
2023-02-23T12:22:03.579Z,101109.34
2023-02-23T12:26:14.041Z,101110.16
2023-02-23T12:30:21.061Z,101106.59
2023-02-23T12:34:30.893Z,101110.13
2023-02-23T12:38:45.282Z,101114.50
2023-02-23T12:42:59.816Z,101108.84
2023-02-23T12:47:09.077Z,101121.38
2023-02-23T12:51:22.073Z,101124.09
2023-02-23T12:55:38.332Z,101111.50
2023-02-23T13:00:10.236Z,101112.94
2023-02-23T13:04:36.911Z,101119.13
2023-02-23T13:09:03.605Z,101130.41
2023-02-23T13:13:21.661Z,101129.75
2023-02-23T13:17:39.882Z,101113.53
2023-02-23T13:21:50.331Z,101127.50
2023-02-23T13:26:01.640Z,101129.47
2023-02-23T13:30:10.385Z,101120.09
2023-02-23T13:34:22.363Z,101127.44
2023-02-23T13:38:33.679Z,101126.41
2023-02-23T13:43:00.043Z,101119.59
2023-02-23T13:47:12.816Z,101135.03
2023-02-23T13:51:22.079Z,101120.84
2023-02-23T13:55:50.369Z,101129.59
2023-02-23T13:59:55.843Z,101129.97
2023-02-23T14:04:00.818Z,101127.06
2023-02-23T14:08:06.440Z,101128.13
2023-02-23T14:12:19.379Z,101132.09
2023-02-23T14:16:23.909Z,101131.63
2023-02-23T14:20:53.441Z,101132.91
2023-02-23T14:25:30.999Z,101133.75
2023-02-23T14:29:40.952Z,101143.16
2023-02-23T14:33:57.875Z,101137.31
2023-02-23T14:38:02.799Z,101133.81
2023-02-23T14:42:08.297Z,101135.44
2023-02-23T14:46:20.634Z,101138.59
2023-02-23T14:50:29.323Z,101137.31
2023-02-23T14:54:34.416Z,101130.84
2023-02-23T14:58:37.581Z,101134.97
2023-02-23T15:02:53.660Z,101125.38
2023-02-23T15:07:02.625Z,101130.38
2023-02-23T15:11:12.066Z,101116.34
2023-02-23T15:15:20.448Z,101108.19
2023-02-23T15:19:34.430Z,101115.50
2023-02-23T15:23:39.145Z,101112.16
2023-02-23T15:27:45.294Z,101116.00
2023-02-23T15:31:53.654Z,101125.38
2023-02-23T15:36:05.892Z,101117.47
2023-02-23T15:40:15.861Z,101118.31
2023-02-23T15:44:24.272Z,101124.31
2023-02-23T15:48:39.509Z,101122.50
2023-02-23T15:52:48.304Z,101121.47
2023-02-23T15:56:58.077Z,101121.47
2023-02-23T16:01:05.938Z,101126.47
2023-02-23T16:05:21.068Z,101122.31
2023-02-23T16:09:29.879Z,101129.25
2023-02-23T16:13:34.533Z,101133.44
2023-02-23T16:17:44.645Z,101124.88
2023-02-23T16:21:53.722Z,101135.09
2023-02-23T16:26:01.360Z,101123.69
2023-02-23T16:30:19.698Z,101132.88
2023-02-23T16:34:27.196Z,101135.63
2023-02-23T16:38:36.379Z,101128.09
2023-02-23T16:42:40.435Z,101140.00
2023-02-23T16:47:32.933Z,101134.53
2023-02-23T16:51:37.511Z,101134.47
2023-02-23T16:55:44.338Z,101123.88
2023-02-23T16:59:50.566Z,101127.00
2023-02-23T17:03:54.878Z,101136.63
2023-02-23T17:07:59.298Z,101134.34
2023-02-23T17:12:02.272Z,101134.78
2023-02-23T17:16:09.055Z,101140.59
2023-02-23T17:20:21.640Z,101151.88
2023-02-23T17:24:26.180Z,101166.31
2023-02-23T17:28:29.252Z,101187.91
2023-02-23T17:32:33.020Z,101177.56
2023-02-23T17:36:37.602Z,101193.47
2023-02-23T17:40:40.729Z,101201.19
2023-02-23T17:44:44.686Z,101200.34
2023-02-23T17:48:47.791Z,101199.09
2023-02-23T17:52:52.608Z,101221.56
2023-02-23T17:56:55.496Z,101215.34
2023-02-23T18:01:00.574Z,101208.66
2023-02-23T18:05:04.305Z,101219.03
2023-02-23T18:09:09.219Z,101228.19
2023-02-23T18:13:12.980Z,101234.22
2023-02-23T18:17:37.117Z,101238.78
2023-02-23T18:21:41.575Z,101240.81
2023-02-23T18:25:46.491Z,101243.94
2023-02-23T18:29:49.531Z,101250.56
2023-02-23T18:33:53.684Z,101241.88
2023-02-23T18:37:56.919Z,101239.59
2023-02-23T18:42:02.812Z,101244.59
2023-02-23T18:46:06.830Z,101253.25
2023-02-23T18:50:12.771Z,101243.66
2023-02-23T18:54:18.542Z,101259.06
2023-02-23T18:58:22.994Z,101259.47
2023-02-23T19:02:30.100Z,101251.75
2023-02-23T19:06:37.393Z,101248.81
2023-02-23T19:10:41.530Z,101252.53
2023-02-23T19:14:49.755Z,101270.38
2023-02-23T19:19:00.427Z,101267.47
2023-02-23T19:23:08.066Z,101268.66
2023-02-23T19:27:22.501Z,101253.13
2023-02-23T19:31:32.200Z,101260.78
2023-02-23T19:35:36.193Z,101258.34
2023-02-23T19:39:40.857Z,101253.72
2023-02-23T19:43:44.444Z,101249.19
2023-02-23T19:47:48.772Z,101248.78
2023-02-23T19:51:54.078Z,101236.75
2023-02-23T19:56:03.231Z,101245.66
2023-02-23T20:00:12.058Z,101235.91
2023-02-23T20:04:16.479Z,101236.72
2023-02-23T20:08:19.798Z,101253.13
2023-02-23T20:12:23.736Z,101252.50
2023-02-23T20:16:29.556Z,101255.41
2023-02-23T20:20:35.895Z,101254.34
2023-02-23T20:24:40.104Z,101257.03
2023-02-23T20:28:43.830Z,101249.50
2023-02-23T20:32:47.236Z,101252.19
2023-02-23T20:36:51.715Z,101250.88
2023-02-23T20:40:54.884Z,101251.28
2023-02-23T20:44:58.470Z,101254.13
2023-02-23T20:49:18.652Z,101243.69
2023-02-23T20:53:40.945Z,101249.03
2023-02-23T20:57:56.375Z,101248.38
2023-02-23T21:02:04.033Z,101240.22
2023-02-23T21:06:08.157Z,101243.09
2023-02-23T21:10:13.907Z,101245.56
2023-02-23T21:14:18.009Z,101242.03
2023-02-23T21:18:31.593Z,101239.97
2023-02-23T21:22:40.985Z,101232.13
2023-02-23T21:26:45.596Z,101230.06
2023-02-23T21:30:49.185Z,101222.38
2023-02-23T21:34:53.552Z,101221.13
2023-02-23T21:38:57.331Z,101219.69
2023-02-23T21:43:16.362Z,101210.88
2023-02-23T21:47:36.340Z,101212.50
2023-02-23T21:51:55.153Z,101210.78
2023-02-23T21:55:59.815Z,101204.69
2023-02-23T22:00:08.267Z,101205.03
2023-02-23T22:04:16.240Z,101205.56
2023-02-23T22:08:19.050Z,101211.91
2023-02-23T22:12:22.352Z,101209.16
2023-02-23T22:16:32.235Z,101215.13
2023-02-23T22:20:35.153Z,101211.78
2023-02-23T22:24:38.978Z,101215.44
2023-02-23T22:28:42.678Z,101211.44
2023-02-23T22:32:47.612Z,101214.78
2023-02-23T22:36:52.649Z,101211.19
2023-02-23T22:41:05.395Z,101209.09
2023-02-23T22:45:10.755Z,101202.31
2023-02-23T22:49:19.729Z,101205.97
2023-02-23T22:53:24.833Z,101196.34
2023-02-23T22:57:27.924Z,101194.84
2023-02-23T23:01:30.934Z,101191.78
2023-02-23T23:05:35.528Z,101187.59
2023-02-23T23:09:39.900Z,101176.59
2023-02-23T23:13:44.586Z,101181.31
2023-02-23T23:17:49.171Z,101167.41
2023-02-23T23:21:56.071Z,101166.09
2023-02-23T23:25:59.998Z,101157.75
2023-02-23T23:30:05.745Z,101152.75
2023-02-23T23:34:11.300Z,101151.66
2023-02-23T23:38:17.275Z,101141.63
2023-02-23T23:42:20.259Z,101143.03
2023-02-23T23:46:26.696Z,101141.09
2023-02-23T23:50:30.826Z,101146.84
2023-02-23T23:54:38.895Z,101141.56
2023-02-23T23:58:42.590Z,101134.78
